sensor_id;sensor_type;location;lat;lon;timestamp;P1;durP1;ratioP1;P2;durP2;ratioP2
44774;SDS011;31340;51.402;0.016;2024-01-30T00:02:18;34.78;;;12.27;;
44774;SDS011;31340;51.402;0.016;2024-01-30T00:04:47;36.83;;;12.20;;
44774;SDS011;31340;51.402;0.016;2024-01-30T00:07:14;29.70;;;12.32;;
44774;SDS011;31340;51.402;0.016;2024-01-30T00:09:43;31.80;;;12.00;;
44774;SDS011;31340;51.402;0.016;2024-01-30T00:14:42;30.25;;;12.38;;
44774;SDS011;31340;51.402;0.016;2024-01-30T00:17:12;29.83;;;11.93;;
44774;SDS011;31340;51.402;0.016;2024-01-30T00:19:40;35.65;;;11.98;;
44774;SDS011;31340;51.402;0.016;2024-01-30T00:22:08;37.50;;;11.00;;
44774;SDS011;31340;51.402;0.016;2024-01-30T00:24:36;29.02;;;11.55;;
44774;SDS011;31340;51.402;0.016;2024-01-30T00:27:04;32.63;;;11.32;;
44774;SDS011;31340;51.402;0.016;2024-01-30T00:29:31;29.02;;;10.88;;
44774;SDS011;31340;51.402;0.016;2024-01-30T00:32:01;32.83;;;11.95;;
44774;SDS011;31340;51.402;0.016;2024-01-30T00:34:28;37.33;;;11.20;;
44774;SDS011;31340;51.402;0.016;2024-01-30T00:36:57;27.25;;;11.43;;
44774;SDS011;31340;51.402;0.016;2024-01-30T00:39:25;29.83;;;11.13;;
44774;SDS011;31340;51.402;0.016;2024-01-30T00:41:52;29.25;;;10.30;;
44774;SDS011;31340;51.402;0.016;2024-01-30T00:44:20;33.03;;;11.57;;
44774;SDS011;31340;51.402;0.016;2024-01-30T00:46:48;39.00;;;10.88;;
44774;SDS011;31340;51.402;0.016;2024-01-30T00:49:15;29.65;;;10.35;;
44774;SDS011;31340;51.402;0.016;2024-01-30T00:51:44;28.88;;;9.95;;
44774;SDS011;31340;51.402;0.016;2024-01-30T00:54:12;27.58;;;10.07;;
44774;SDS011;31340;51.402;0.016;2024-01-30T00:56:40;25.23;;;9.50;;
44774;SDS011;31340;51.402;0.016;2024-01-30T00:59:08;20.17;;;9.45;;
44774;SDS011;31340;51.402;0.016;2024-01-30T01:01:35;21.00;;;8.02;;
44774;SDS011;31340;51.402;0.016;2024-01-30T01:04:03;22.25;;;8.00;;
44774;SDS011;31340;51.402;0.016;2024-01-30T01:06:31;26.38;;;7.65;;
44774;SDS011;31340;51.402;0.016;2024-01-30T01:08:59;18.55;;;7.63;;
44774;SDS011;31340;51.402;0.016;2024-01-30T01:11:31;23.63;;;7.40;;
44774;SDS011;31340;51.402;0.016;2024-01-30T01:13:58;19.85;;;6.65;;
44774;SDS011;31340;51.402;0.016;2024-01-30T01:16:27;20.48;;;7.18;;
44774;SDS011;31340;51.402;0.016;2024-01-30T01:18:55;23.75;;;6.10;;
44774;SDS011;31340;51.402;0.016;2024-01-30T01:21:23;16.42;;;5.05;;
44774;SDS011;31340;51.402;0.016;2024-01-30T01:23:52;13.82;;;5.25;;
44774;SDS011;31340;51.402;0.016;2024-01-30T01:26:19;13.68;;;4.10;;
44774;SDS011;31340;51.402;0.016;2024-01-30T01:28:48;14.80;;;4.20;;
44774;SDS011;31340;51.402;0.016;2024-01-30T01:31:17;11.52;;;3.65;;
44774;SDS011;31340;51.402;0.016;2024-01-30T01:33:45;17.75;;;3.95;;
44774;SDS011;31340;51.402;0.016;2024-01-30T01:36:13;12.25;;;3.33;;
44774;SDS011;31340;51.402;0.016;2024-01-30T01:38:42;20.27;;;3.83;;
44774;SDS011;31340;51.402;0.016;2024-01-30T01:41:10;11.75;;;2.85;;
44774;SDS011;31340;51.402;0.016;2024-01-30T01:43:38;13.63;;;3.20;;
44774;SDS011;31340;51.402;0.016;2024-01-30T01:46:06;20.55;;;4.32;;
44774;SDS011;31340;51.402;0.016;2024-01-30T01:48:35;13.63;;;3.47;;
44774;SDS011;31340;51.402;0.016;2024-01-30T01:51:04;8.52;;;3.25;;
44774;SDS011;31340;51.402;0.016;2024-01-30T01:53:34;13.98;;;3.40;;
44774;SDS011;31340;51.402;0.016;2024-01-30T01:56:02;12.63;;;2.65;;
44774;SDS011;31340;51.402;0.016;2024-01-30T01:58:30;13.32;;;2.83;;
44774;SDS011;31340;51.402;0.016;2024-01-30T02:00:58;17.70;;;2.50;;
44774;SDS011;31340;51.402;0.016;2024-01-30T02:03:26;16.48;;;2.90;;
44774;SDS011;31340;51.402;0.016;2024-01-30T02:05:54;11.68;;;2.50;;
44774;SDS011;31340;51.402;0.016;2024-01-30T02:08:24;10.57;;;2.25;;
44774;SDS011;31340;51.402;0.016;2024-01-30T02:10:51;12.10;;;2.35;;
44774;SDS011;31340;51.402;0.016;2024-01-30T02:13:20;9.88;;;1.92;;
44774;SDS011;31340;51.402;0.016;2024-01-30T02:15:50;11.07;;;2.30;;
44774;SDS011;31340;51.402;0.016;2024-01-30T02:18:19;13.48;;;3.35;;
44774;SDS011;31340;51.402;0.016;2024-01-30T02:21:07;14.13;;;2.20;;
44774;SDS011;31340;51.402;0.016;2024-01-30T02:23:35;9.60;;;2.38;;
44774;SDS011;31340;51.402;0.016;2024-01-30T02:26:04;15.30;;;2.40;;
44774;SDS011;31340;51.402;0.016;2024-01-30T02:28:32;15.10;;;2.25;;
44774;SDS011;31340;51.402;0.016;2024-01-30T02:30:59;7.80;;;1.95;;
44774;SDS011;31340;51.402;0.016;2024-01-30T02:33:27;5.95;;;1.80;;
44774;SDS011;31340;51.402;0.016;2024-01-30T02:35:55;9.15;;;1.35;;
44774;SDS011;31340;51.402;0.016;2024-01-30T02:38:24;6.60;;;2.05;;
44774;SDS011;31340;51.402;0.016;2024-01-30T02:40:54;9.75;;;1.85;;
44774;SDS011;31340;51.402;0.016;2024-01-30T02:43:22;5.75;;;1.23;;
44774;SDS011;31340;51.402;0.016;2024-01-30T02:45:50;7.80;;;1.27;;
44774;SDS011;31340;51.402;0.016;2024-01-30T02:48:18;7.90;;;1.33;;
44774;SDS011;31340;51.402;0.016;2024-01-30T02:50:45;8.88;;;2.13;;
44774;SDS011;31340;51.402;0.016;2024-01-30T02:53:15;6.70;;;1.13;;
44774;SDS011;31340;51.402;0.016;2024-01-30T02:55:42;4.53;;;1.23;;
44774;SDS011;31340;51.402;0.016;2024-01-30T02:58:10;11.00;;;1.50;;
44774;SDS011;31340;51.402;0.016;2024-01-30T03:00:38;4.00;;;1.05;;
44774;SDS011;31340;51.402;0.016;2024-01-30T03:03:06;16.55;;;1.40;;
44774;SDS011;31340;51.402;0.016;2024-01-30T03:05:34;9.10;;;1.38;;
44774;SDS011;31340;51.402;0.016;2024-01-30T03:08:01;8.25;;;1.67;;
44774;SDS011;31340;51.402;0.016;2024-01-30T03:10:31;10.35;;;1.80;;
44774;SDS011;31340;51.402;0.016;2024-01-30T03:12:58;8.80;;;1.25;;
44774;SDS011;31340;51.402;0.016;2024-01-30T03:15:26;18.15;;;2.22;;
44774;SDS011;31340;51.402;0.016;2024-01-30T03:17:54;14.90;;;2.17;;
44774;SDS011;31340;51.402;0.016;2024-01-30T03:20:22;9.70;;;1.35;;
44774;SDS011;31340;51.402;0.016;2024-01-30T03:22:50;9.02;;;1.40;;
44774;SDS011;31340;51.402;0.016;2024-01-30T03:25:18;13.10;;;2.00;;
44774;SDS011;31340;51.402;0.016;2024-01-30T03:27:46;8.60;;;1.20;;
44774;SDS011;31340;51.402;0.016;2024-01-30T03:30:13;8.02;;;1.90;;
44774;SDS011;31340;51.402;0.016;2024-01-30T03:32:41;4.80;;;1.55;;
44774;SDS011;31340;51.402;0.016;2024-01-30T03:35:10;6.50;;;1.05;;
44774;SDS011;31340;51.402;0.016;2024-01-30T03:37:37;9.27;;;1.85;;
44774;SDS011;31340;51.402;0.016;2024-01-30T03:40:05;5.63;;;1.63;;
44774;SDS011;31340;51.402;0.016;2024-01-30T03:42:34;5.03;;;1.25;;
44774;SDS011;31340;51.402;0.016;2024-01-30T03:45:02;8.13;;;1.48;;
44774;SDS011;31340;51.402;0.016;2024-01-30T03:47:31;5.25;;;1.30;;
44774;SDS011;31340;51.402;0.016;2024-01-30T03:49:59;9.40;;;1.35;;
44774;SDS011;31340;51.402;0.016;2024-01-30T03:52:27;4.40;;;1.40;;
44774;SDS011;31340;51.402;0.016;2024-01-30T03:54:54;8.50;;;1.50;;
44774;SDS011;31340;51.402;0.016;2024-01-30T03:57:22;4.25;;;0.93;;
44774;SDS011;31340;51.402;0.016;2024-01-30T03:59:49;4.70;;;1.20;;
44774;SDS011;31340;51.402;0.016;2024-01-30T04:02:18;4.28;;;1.02;;
44774;SDS011;31340;51.402;0.016;2024-01-30T04:04:46;2.00;;;0.82;;
44774;SDS011;31340;51.402;0.016;2024-01-30T04:07:13;9.02;;;1.20;;
44774;SDS011;31340;51.402;0.016;2024-01-30T04:09:42;3.65;;;1.00;;
44774;SDS011;31340;51.402;0.016;2024-01-30T04:12:09;6.22;;;1.00;;
44774;SDS011;31340;51.402;0.016;2024-01-30T04:14:38;3.72;;;0.82;;
44774;SDS011;31340;51.402;0.016;2024-01-30T04:17:06;3.50;;;0.80;;
44774;SDS011;31340;51.402;0.016;2024-01-30T04:19:36;5.57;;;1.00;;
44774;SDS011;31340;51.402;0.016;2024-01-30T04:22:06;3.80;;;0.75;;
44774;SDS011;31340;51.402;0.016;2024-01-30T04:24:33;3.50;;;1.13;;
44774;SDS011;31340;51.402;0.016;2024-01-30T04:27:02;0.60;;;0.50;;
44774;SDS011;31340;51.402;0.016;2024-01-30T04:29:30;3.75;;;0.77;;
44774;SDS011;31340;51.402;0.016;2024-01-30T04:31:59;1.02;;;0.60;;
44774;SDS011;31340;51.402;0.016;2024-01-30T04:34:27;3.65;;;0.65;;
44774;SDS011;31340;51.402;0.016;2024-01-30T04:36:54;3.97;;;0.77;;
44774;SDS011;31340;51.402;0.016;2024-01-30T04:39:22;6.47;;;0.90;;
44774;SDS011;31340;51.402;0.016;2024-01-30T04:41:49;3.28;;;0.60;;
44774;SDS011;31340;51.402;0.016;2024-01-30T04:44:17;6.45;;;0.77;;
44774;SDS011;31340;51.402;0.016;2024-01-30T04:46:45;2.92;;;0.70;;
44774;SDS011;31340;51.402;0.016;2024-01-30T04:49:12;2.75;;;0.93;;
44774;SDS011;31340;51.402;0.016;2024-01-30T04:51:41;3.47;;;0.90;;
44774;SDS011;31340;51.402;0.016;2024-01-30T04:54:09;2.78;;;0.70;;
44774;SDS011;31340;51.402;0.016;2024-01-30T04:56:37;4.55;;;0.77;;
44774;SDS011;31340;51.402;0.016;2024-01-30T04:59:06;1.92;;;0.70;;
44774;SDS011;31340;51.402;0.016;2024-01-30T05:01:35;2.38;;;1.00;;
44774;SDS011;31340;51.402;0.016;2024-01-30T05:04:03;3.67;;;1.35;;
44774;SDS011;31340;51.402;0.016;2024-01-30T05:06:31;8.20;;;1.52;;
44774;SDS011;31340;51.402;0.016;2024-01-30T05:08:58;5.30;;;1.20;;
44774;SDS011;31340;51.402;0.016;2024-01-30T05:11:26;7.47;;;1.50;;
44774;SDS011;31340;51.402;0.016;2024-01-30T05:13:53;4.25;;;1.25;;
44774;SDS011;31340;51.402;0.016;2024-01-30T05:16:21;2.00;;;1.38;;
44774;SDS011;31340;51.402;0.016;2024-01-30T05:18:49;4.75;;;1.15;;
44774;SDS011;31340;51.402;0.016;2024-01-30T05:21:17;3.78;;;1.40;;
44774;SDS011;31340;51.402;0.016;2024-01-30T05:23:45;4.53;;;1.73;;
44774;SDS011;31340;51.402;0.016;2024-01-30T05:26:12;2.72;;;1.30;;
44774;SDS011;31340;51.402;0.016;2024-01-30T05:28:41;2.95;;;1.73;;
44774;SDS011;31340;51.402;0.016;2024-01-30T05:31:09;5.38;;;1.40;;
44774;SDS011;31340;51.402;0.016;2024-01-30T05:33:37;8.27;;;1.73;;
44774;SDS011;31340;51.402;0.016;2024-01-30T05:36:05;5.35;;;1.85;;
44774;SDS011;31340;51.402;0.016;2024-01-30T05:38:33;7.78;;;1.83;;
44774;SDS011;31340;51.402;0.016;2024-01-30T05:41:03;4.03;;;1.70;;
44774;SDS011;31340;51.402;0.016;2024-01-30T05:43:31;7.65;;;1.90;;
44774;SDS011;31340;51.402;0.016;2024-01-30T05:45:58;3.42;;;1.77;;
44774;SDS011;31340;51.402;0.016;2024-01-30T05:48:26;8.43;;;1.70;;
44774;SDS011;31340;51.402;0.016;2024-01-30T05:50:54;5.00;;;1.80;;
44774;SDS011;31340;51.402;0.016;2024-01-30T05:53:22;5.38;;;1.75;;
44774;SDS011;31340;51.402;0.016;2024-01-30T05:55:49;3.03;;;1.30;;
44774;SDS011;31340;51.402;0.016;2024-01-30T05:58:18;6.15;;;1.30;;
44774;SDS011;31340;51.402;0.016;2024-01-30T06:00:46;6.00;;;1.27;;
44774;SDS011;31340;51.402;0.016;2024-01-30T06:03:13;3.28;;;0.95;;
44774;SDS011;31340;51.402;0.016;2024-01-30T06:05:41;7.03;;;1.10;;
44774;SDS011;31340;51.402;0.016;2024-01-30T06:08:09;1.20;;;0.80;;
44774;SDS011;31340;51.402;0.016;2024-01-30T06:10:37;1.00;;;0.82;;
44774;SDS011;31340;51.402;0.016;2024-01-30T06:13:06;0.88;;;0.68;;
44774;SDS011;31340;51.402;0.016;2024-01-30T06:15:34;1.67;;;0.60;;
44774;SDS011;31340;51.402;0.016;2024-01-30T06:18:01;2.47;;;0.80;;
44774;SDS011;31340;51.402;0.016;2024-01-30T06:20:29;2.45;;;0.88;;
44774;SDS011;31340;51.402;0.016;2024-01-30T06:22:58;1.60;;;0.70;;
44774;SDS011;31340;51.402;0.016;2024-01-30T06:25:26;2.70;;;0.63;;
44774;SDS011;31340;51.402;0.016;2024-01-30T06:27:54;2.85;;;0.60;;
44774;SDS011;31340;51.402;0.016;2024-01-30T06:30:22;2.88;;;0.80;;
44774;SDS011;31340;51.402;0.016;2024-01-30T06:32:50;2.83;;;0.88;;
44774;SDS011;31340;51.402;0.016;2024-01-30T06:35:18;2.13;;;0.88;;
44774;SDS011;31340;51.402;0.016;2024-01-30T06:37:46;2.38;;;1.17;;
44774;SDS011;31340;51.402;0.016;2024-01-30T06:40:14;2.15;;;0.98;;
44774;SDS011;31340;51.402;0.016;2024-01-30T06:42:42;2.20;;;0.90;;
44774;SDS011;31340;51.402;0.016;2024-01-30T06:45:10;2.70;;;1.15;;
44774;SDS011;31340;51.402;0.016;2024-01-30T06:47:38;6.43;;;1.88;;
44774;SDS011;31340;51.402;0.016;2024-01-30T06:50:06;5.32;;;1.38;;
44774;SDS011;31340;51.402;0.016;2024-01-30T06:52:34;4.80;;;1.85;;
44774;SDS011;31340;51.402;0.016;2024-01-30T06:55:03;5.00;;;1.90;;
44774;SDS011;31340;51.402;0.016;2024-01-30T06:57:31;4.18;;;1.70;;
44774;SDS011;31340;51.402;0.016;2024-01-30T07:00:00;4.30;;;2.00;;
44774;SDS011;31340;51.402;0.016;2024-01-30T07:02:28;5.60;;;1.67;;
44774;SDS011;31340;51.402;0.016;2024-01-30T07:04:56;3.75;;;1.85;;
44774;SDS011;31340;51.402;0.016;2024-01-30T07:07:24;5.20;;;2.10;;
44774;SDS011;31340;51.402;0.016;2024-01-30T07:09:52;6.55;;;2.70;;
44774;SDS011;31340;51.402;0.016;2024-01-30T07:12:23;8.07;;;2.92;;
44774;SDS011;31340;51.402;0.016;2024-01-30T07:14:53;4.60;;;2.65;;
44774;SDS011;31340;51.402;0.016;2024-01-30T07:17:22;5.45;;;2.85;;
44774;SDS011;31340;51.402;0.016;2024-01-30T07:19:50;4.70;;;2.58;;
44774;SDS011;31340;51.402;0.016;2024-01-30T07:22:18;6.00;;;2.92;;
44774;SDS011;31340;51.402;0.016;2024-01-30T07:24:45;6.32;;;2.70;;
44774;SDS011;31340;51.402;0.016;2024-01-30T07:27:15;6.70;;;3.15;;
44774;SDS011;31340;51.402;0.016;2024-01-30T07:29:46;8.63;;;4.30;;
44774;SDS011;31340;51.402;0.016;2024-01-30T07:32:14;9.52;;;3.90;;
44774;SDS011;31340;51.402;0.016;2024-01-30T07:34:41;7.47;;;3.67;;
44774;SDS011;31340;51.402;0.016;2024-01-30T07:37:30;11.07;;;4.00;;
44774;SDS011;31340;51.402;0.016;2024-01-30T07:39:58;8.90;;;3.83;;
44774;SDS011;31340;51.402;0.016;2024-01-30T07:42:26;7.90;;;3.70;;
44774;SDS011;31340;51.402;0.016;2024-01-30T07:44:53;7.65;;;3.35;;
44774;SDS011;31340;51.402;0.016;2024-01-30T07:47:21;4.65;;;3.25;;
44774;SDS011;31340;51.402;0.016;2024-01-30T07:49:49;6.65;;;3.30;;
44774;SDS011;31340;51.402;0.016;2024-01-30T07:52:17;7.20;;;3.33;;
44774;SDS011;31340;51.402;0.016;2024-01-30T07:54:45;6.07;;;3.20;;
44774;SDS011;31340;51.402;0.016;2024-01-30T07:57:12;5.70;;;3.10;;
44774;SDS011;31340;51.402;0.016;2024-01-30T07:59:42;4.63;;;2.83;;
44774;SDS011;31340;51.402;0.016;2024-01-30T08:02:14;5.80;;;2.95;;
44774;SDS011;31340;51.402;0.016;2024-01-30T08:04:42;4.60;;;2.45;;
44774;SDS011;31340;51.402;0.016;2024-01-30T08:07:09;5.13;;;2.50;;
44774;SDS011;31340;51.402;0.016;2024-01-30T08:09:37;6.55;;;2.78;;
44774;SDS011;31340;51.402;0.016;2024-01-30T08:12:06;4.07;;;2.17;;
44774;SDS011;31340;51.402;0.016;2024-01-30T08:14:35;4.68;;;2.75;;
44774;SDS011;31340;51.402;0.016;2024-01-30T08:17:02;5.55;;;2.42;;
44774;SDS011;31340;51.402;0.016;2024-01-30T08:19:30;3.50;;;2.30;;
44774;SDS011;31340;51.402;0.016;2024-01-30T08:21:58;6.50;;;2.50;;
44774;SDS011;31340;51.402;0.016;2024-01-30T08:24:25;5.82;;;2.60;;
44774;SDS011;31340;51.402;0.016;2024-01-30T08:26:53;4.68;;;2.40;;
44774;SDS011;31340;51.402;0.016;2024-01-30T08:29:20;7.95;;;2.80;;
44774;SDS011;31340;51.402;0.016;2024-01-30T08:31:48;4.38;;;2.28;;
44774;SDS011;31340;51.402;0.016;2024-01-30T08:34:16;5.47;;;2.28;;
44774;SDS011;31340;51.402;0.016;2024-01-30T08:36:43;3.83;;;2.42;;
44774;SDS011;31340;51.402;0.016;2024-01-30T08:39:12;3.53;;;1.83;;
44774;SDS011;31340;51.402;0.016;2024-01-30T08:41:39;2.42;;;1.58;;
44774;SDS011;31340;51.402;0.016;2024-01-30T08:44:07;2.60;;;1.73;;
44774;SDS011;31340;51.402;0.016;2024-01-30T08:46:35;2.33;;;1.42;;
44774;SDS011;31340;51.402;0.016;2024-01-30T08:49:02;2.08;;;1.45;;
44774;SDS011;31340;51.402;0.016;2024-01-30T08:51:33;1.17;;;1.08;;
44774;SDS011;31340;51.402;0.016;2024-01-30T08:54:01;3.58;;;1.27;;
44774;SDS011;31340;51.402;0.016;2024-01-30T08:56:29;2.17;;;1.40;;
44774;SDS011;31340;51.402;0.016;2024-01-30T08:58:57;3.88;;;1.38;;
44774;SDS011;31340;51.402;0.016;2024-01-30T09:01:25;3.35;;;1.20;;
44774;SDS011;31340;51.402;0.016;2024-01-30T09:03:55;1.98;;;1.08;;
44774;SDS011;31340;51.402;0.016;2024-01-30T09:06:24;1.50;;;0.90;;
44774;SDS011;31340;51.402;0.016;2024-01-30T09:08:54;2.78;;;1.10;;
44774;SDS011;31340;51.402;0.016;2024-01-30T09:11:22;2.70;;;1.00;;
44774;SDS011;31340;51.402;0.016;2024-01-30T09:13:50;3.83;;;1.00;;
44774;SDS011;31340;51.402;0.016;2024-01-30T09:16:18;1.90;;;0.90;;
44774;SDS011;31340;51.402;0.016;2024-01-30T09:18:46;1.55;;;1.20;;
44774;SDS011;31340;51.402;0.016;2024-01-30T09:21:13;1.30;;;0.80;;
44774;SDS011;31340;51.402;0.016;2024-01-30T09:23:41;1.42;;;0.73;;
44774;SDS011;31340;51.402;0.016;2024-01-30T09:26:09;1.10;;;0.80;;
44774;SDS011;31340;51.402;0.016;2024-01-30T09:28:37;6.43;;;0.85;;
44774;SDS011;31340;51.402;0.016;2024-01-30T09:31:09;1.23;;;0.80;;
44774;SDS011;31340;51.402;0.016;2024-01-30T09:33:37;1.65;;;0.65;;
44774;SDS011;31340;51.402;0.016;2024-01-30T09:36:06;1.30;;;0.70;;
44774;SDS011;31340;51.402;0.016;2024-01-30T09:38:35;0.70;;;0.50;;
44774;SDS011;31340;51.402;0.016;2024-01-30T09:41:03;0.68;;;0.68;;
44774;SDS011;31340;51.402;0.016;2024-01-30T09:43:38;1.23;;;0.60;;
44774;SDS011;31340;51.402;0.016;2024-01-30T09:46:08;1.40;;;0.93;;
44774;SDS011;31340;51.402;0.016;2024-01-30T09:48:41;1.77;;;0.77;;
44774;SDS011;31340;51.402;0.016;2024-01-30T09:51:09;2.60;;;0.70;;
44774;SDS011;31340;51.402;0.016;2024-01-30T09:53:38;0.50;;;0.50;;
44774;SDS011;31340;51.402;0.016;2024-01-30T09:56:10;2.28;;;0.60;;
44774;SDS011;31340;51.402;0.016;2024-01-30T09:58:39;3.15;;;0.60;;
44774;SDS011;31340;51.402;0.016;2024-01-30T10:01:06;2.75;;;0.60;;
44774;SDS011;31340;51.402;0.016;2024-01-30T10:03:34;2.40;;;0.60;;
44774;SDS011;31340;51.402;0.016;2024-01-30T10:06:02;2.47;;;0.75;;
44774;SDS011;31340;51.402;0.016;2024-01-30T10:08:30;0.75;;;0.60;;
44774;SDS011;31340;51.402;0.016;2024-01-30T10:10:58;2.20;;;0.60;;
44774;SDS011;31340;51.402;0.016;2024-01-30T10:13:26;0.68;;;0.68;;
44774;SDS011;31340;51.402;0.016;2024-01-30T10:15:53;4.05;;;0.60;;
44774;SDS011;31340;51.402;0.016;2024-01-30T10:18:22;0.75;;;0.55;;
44774;SDS011;31340;51.402;0.016;2024-01-30T10:20:51;0.65;;;0.47;;
44774;SDS011;31340;51.402;0.016;2024-01-30T10:23:19;1.95;;;0.65;;
44774;SDS011;31340;51.402;0.016;2024-01-30T10:25:47;1.65;;;0.70;;
44774;SDS011;31340;51.402;0.016;2024-01-30T10:28:14;4.35;;;0.55;;
44774;SDS011;31340;51.402;0.016;2024-01-30T10:30:42;2.13;;;0.55;;
44774;SDS011;31340;51.402;0.016;2024-01-30T10:33:10;2.85;;;0.77;;
44774;SDS011;31340;51.402;0.016;2024-01-30T10:35:38;2.03;;;0.65;;
44774;SDS011;31340;51.402;0.016;2024-01-30T10:38:07;3.03;;;0.85;;
44774;SDS011;31340;51.402;0.016;2024-01-30T10:40:39;2.97;;;0.80;;
44774;SDS011;31340;51.402;0.016;2024-01-30T10:43:09;2.15;;;0.85;;
44774;SDS011;31340;51.402;0.016;2024-01-30T10:45:38;2.78;;;0.80;;
44774;SDS011;31340;51.402;0.016;2024-01-30T10:48:12;2.80;;;0.98;;
44774;SDS011;31340;51.402;0.016;2024-01-30T10:50:41;4.70;;;0.80;;
44774;SDS011;31340;51.402;0.016;2024-01-30T10:53:20;1.27;;;0.80;;
44774;SDS011;31340;51.402;0.016;2024-01-30T10:55:49;2.00;;;0.93;;
44774;SDS011;31340;51.402;0.016;2024-01-30T10:58:19;2.72;;;0.73;;
44774;SDS011;31340;51.402;0.016;2024-01-30T11:00:49;2.20;;;0.90;;
44774;SDS011;31340;51.402;0.016;2024-01-30T11:03:17;1.33;;;0.80;;
44774;SDS011;31340;51.402;0.016;2024-01-30T11:05:48;1.48;;;1.20;;
44774;SDS011;31340;51.402;0.016;2024-01-30T11:08:24;3.03;;;0.85;;
44774;SDS011;31340;51.402;0.016;2024-01-30T11:10:55;4.25;;;0.70;;
44774;SDS011;31340;51.402;0.016;2024-01-30T11:13:29;1.80;;;0.70;;
44774;SDS011;31340;51.402;0.016;2024-01-30T11:16:00;2.42;;;0.60;;
44774;SDS011;31340;51.402;0.016;2024-01-30T11:18:29;2.25;;;0.73;;
44774;SDS011;31340;51.402;0.016;2024-01-30T11:20:59;2.22;;;0.70;;
44774;SDS011;31340;51.402;0.016;2024-01-30T11:23:28;1.02;;;0.50;;
44774;SDS011;31340;51.402;0.016;2024-01-30T11:25:56;2.42;;;0.73;;
44774;SDS011;31340;51.402;0.016;2024-01-30T11:28:24;0.60;;;0.50;;
44774;SDS011;31340;51.402;0.016;2024-01-30T11:31:04;3.00;;;0.50;;
44774;SDS011;31340;51.402;0.016;2024-01-30T11:33:34;0.95;;;0.63;;
44774;SDS011;31340;51.402;0.016;2024-01-30T11:36:04;1.45;;;0.50;;
44774;SDS011;31340;51.402;0.016;2024-01-30T11:38:34;0.85;;;0.50;;
44774;SDS011;31340;51.402;0.016;2024-01-30T11:41:02;0.70;;;0.70;;
44774;SDS011;31340;51.402;0.016;2024-01-30T11:43:31;1.95;;;0.95;;
44774;SDS011;31340;51.402;0.016;2024-01-30T11:46:01;0.60;;;0.60;;
44774;SDS011;31340;51.402;0.016;2024-01-30T11:48:29;4.07;;;0.68;;
44774;SDS011;31340;51.402;0.016;2024-01-30T11:50:57;2.65;;;0.70;;
44774;SDS011;31340;51.402;0.016;2024-01-30T11:53:25;0.98;;;0.88;;
44774;SDS011;31340;51.402;0.016;2024-01-30T11:55:52;1.02;;;0.60;;
44774;SDS011;31340;51.402;0.016;2024-01-30T11:58:24;2.30;;;0.70;;
44774;SDS011;31340;51.402;0.016;2024-01-30T12:00:53;0.85;;;0.60;;
44774;SDS011;31340;51.402;0.016;2024-01-30T12:03:23;2.42;;;0.70;;
44774;SDS011;31340;51.402;0.016;2024-01-30T12:05:57;1.10;;;0.75;;
44774;SDS011;31340;51.402;0.016;2024-01-30T12:08:29;0.98;;;0.70;;
44774;SDS011;31340;51.402;0.016;2024-01-30T12:10:59;1.13;;;0.70;;
44774;SDS011;31340;51.402;0.016;2024-01-30T12:13:32;4.82;;;1.23;;
44774;SDS011;31340;51.402;0.016;2024-01-30T12:16:00;1.30;;;0.73;;
44774;SDS011;31340;51.402;0.016;2024-01-30T12:18:29;1.80;;;0.60;;
44774;SDS011;31340;51.402;0.016;2024-01-30T12:20:57;1.10;;;0.60;;
44774;SDS011;31340;51.402;0.016;2024-01-30T12:23:28;1.40;;;0.70;;
44774;SDS011;31340;51.402;0.016;2024-01-30T12:25:57;5.47;;;0.95;;
44774;SDS011;31340;51.402;0.016;2024-01-30T12:28:26;0.98;;;0.70;;
44774;SDS011;31340;51.402;0.016;2024-01-30T12:30:56;0.93;;;0.60;;
44774;SDS011;31340;51.402;0.016;2024-01-30T12:33:31;2.08;;;0.60;;
44774;SDS011;31340;51.402;0.016;2024-01-30T12:36:02;1.60;;;0.70;;
44774;SDS011;31340;51.402;0.016;2024-01-30T12:38:32;2.15;;;0.50;;
44774;SDS011;31340;51.402;0.016;2024-01-30T12:41:00;0.65;;;0.52;;
44774;SDS011;31340;51.402;0.016;2024-01-30T12:43:27;1.45;;;0.50;;
44774;SDS011;31340;51.402;0.016;2024-01-30T12:46:05;1.10;;;0.50;;
44774;SDS011;31340;51.402;0.016;2024-01-30T12:48:33;0.50;;;0.50;;
44774;SDS011;31340;51.402;0.016;2024-01-30T12:51:01;2.53;;;0.55;;
44774;SDS011;31340;51.402;0.016;2024-01-30T12:53:28;2.10;;;0.57;;
44774;SDS011;31340;51.402;0.016;2024-01-30T12:55:56;1.58;;;0.70;;
44774;SDS011;31340;51.402;0.016;2024-01-30T12:58:24;3.25;;;0.63;;
44774;SDS011;31340;51.402;0.016;2024-01-30T13:00:52;0.50;;;0.50;;
44774;SDS011;31340;51.402;0.016;2024-01-30T13:03:21;0.57;;;0.40;;
44774;SDS011;31340;51.402;0.016;2024-01-30T13:05:49;1.13;;;0.95;;
44774;SDS011;31340;51.402;0.016;2024-01-30T13:08:17;1.25;;;0.60;;
44774;SDS011;31340;51.402;0.016;2024-01-30T13:10:44;0.50;;;0.50;;
44774;SDS011;31340;51.402;0.016;2024-01-30T13:13:15;2.90;;;0.80;;
44774;SDS011;31340;51.402;0.016;2024-01-30T13:15:47;2.35;;;0.75;;
44774;SDS011;31340;51.402;0.016;2024-01-30T13:18:15;1.33;;;0.75;;
44774;SDS011;31340;51.402;0.016;2024-01-30T13:20:43;3.67;;;0.70;;
44774;SDS011;31340;51.402;0.016;2024-01-30T13:23:11;0.50;;;0.50;;
44774;SDS011;31340;51.402;0.016;2024-01-30T13:25:38;0.70;;;0.60;;
44774;SDS011;31340;51.402;0.016;2024-01-30T13:28:06;2.38;;;0.70;;
44774;SDS011;31340;51.402;0.016;2024-01-30T13:30:34;1.38;;;0.70;;
44774;SDS011;31340;51.402;0.016;2024-01-30T13:33:03;1.48;;;0.77;;
44774;SDS011;31340;51.402;0.016;2024-01-30T13:35:31;0.65;;;0.50;;
44774;SDS011;31340;51.402;0.016;2024-01-30T13:37:59;0.68;;;0.63;;
44774;SDS011;31340;51.402;0.016;2024-01-30T13:40:27;1.73;;;0.60;;
44774;SDS011;31340;51.402;0.016;2024-01-30T13:42:55;0.85;;;0.70;;
44774;SDS011;31340;51.402;0.016;2024-01-30T13:45:23;0.93;;;0.85;;
44774;SDS011;31340;51.402;0.016;2024-01-30T13:47:51;1.45;;;0.75;;
44774;SDS011;31340;51.402;0.016;2024-01-30T13:50:19;1.92;;;0.80;;
44774;SDS011;31340;51.402;0.016;2024-01-30T13:52:47;1.10;;;0.47;;
44774;SDS011;31340;51.402;0.016;2024-01-30T13:55:16;1.38;;;0.90;;
44774;SDS011;31340;51.402;0.016;2024-01-30T13:57:44;3.33;;;0.80;;
44774;SDS011;31340;51.402;0.016;2024-01-30T14:00:14;1.67;;;0.80;;
44774;SDS011;31340;51.402;0.016;2024-01-30T14:02:43;2.50;;;0.70;;
44774;SDS011;31340;51.402;0.016;2024-01-30T14:05:11;2.75;;;0.80;;
44774;SDS011;31340;51.402;0.016;2024-01-30T14:07:39;2.97;;;1.00;;
44774;SDS011;31340;51.402;0.016;2024-01-30T14:10:09;2.72;;;0.70;;
44774;SDS011;31340;51.402;0.016;2024-01-30T14:12:42;0.95;;;0.85;;
44774;SDS011;31340;51.402;0.016;2024-01-30T14:15:15;4.53;;;0.85;;
44774;SDS011;31340;51.402;0.016;2024-01-30T14:17:55;3.38;;;0.82;;
44774;SDS011;31340;51.402;0.016;2024-01-30T14:20:23;1.20;;;0.70;;
44774;SDS011;31340;51.402;0.016;2024-01-30T14:22:52;2.05;;;0.60;;
44774;SDS011;31340;51.402;0.016;2024-01-30T14:25:22;1.00;;;0.60;;
44774;SDS011;31340;51.402;0.016;2024-01-30T14:27:50;2.83;;;0.70;;
44774;SDS011;31340;51.402;0.016;2024-01-30T14:30:18;1.02;;;0.80;;
44774;SDS011;31340;51.402;0.016;2024-01-30T14:32:46;1.85;;;0.70;;
44774;SDS011;31340;51.402;0.016;2024-01-30T14:35:15;2.60;;;0.70;;
44774;SDS011;31340;51.402;0.016;2024-01-30T14:37:43;2.55;;;0.73;;
44774;SDS011;31340;51.402;0.016;2024-01-30T14:40:11;0.75;;;0.57;;
44774;SDS011;31340;51.402;0.016;2024-01-30T14:42:39;1.95;;;0.63;;
44774;SDS011;31340;51.402;0.016;2024-01-30T14:45:07;1.85;;;0.52;;
44774;SDS011;31340;51.402;0.016;2024-01-30T14:47:36;1.85;;;0.77;;
44774;SDS011;31340;51.402;0.016;2024-01-30T14:50:05;0.63;;;0.55;;
44774;SDS011;31340;51.402;0.016;2024-01-30T14:52:35;1.00;;;0.65;;
44774;SDS011;31340;51.402;0.016;2024-01-30T14:55:04;2.13;;;0.65;;
44774;SDS011;31340;51.402;0.016;2024-01-30T14:57:33;3.78;;;0.90;;